createdAt,value
2016-11-19T00:00:03.898Z,7.3
2016-11-19T00:00:13.893Z,7.3
2016-11-19T00:00:23.888Z,7.3
2016-11-19T00:00:33.880Z,7.3
2016-11-19T00:00:43.876Z,7.3
2016-11-19T00:00:53.868Z,7.3
2016-11-19T00:01:04.196Z,7.3
2016-11-19T00:01:13.855Z,7.3
2016-11-19T00:01:23.848Z,7.3
2016-11-19T00:01:33.846Z,7.3
2016-11-19T00:01:43.838Z,7.3
2016-11-19T00:01:53.830Z,7.3
2016-11-19T00:02:03.829Z,7.3
2016-11-19T00:02:13.820Z,7.3
2016-11-19T00:02:23.813Z,7.3
2016-11-19T00:02:33.806Z,7.3
2016-11-19T00:02:43.801Z,7.3
2016-11-19T00:02:53.796Z,7.3
2016-11-19T00:03:03.788Z,7.3
2016-11-19T00:03:13.781Z,7.3
2016-11-19T00:03:23.778Z,7.3
2016-11-19T00:03:33.771Z,7.3
2016-11-19T00:03:43.763Z,7.3
2016-11-19T00:03:53.783Z,7.3
2016-11-19T00:04:03.754Z,7.3
2016-11-19T00:04:13.746Z,7.3
2016-11-19T00:04:23.738Z,7.3
2016-11-19T00:04:33.733Z,7.3
2016-11-19T00:04:43.726Z,7.3
2016-11-19T00:04:53.722Z,7.2
2016-11-19T00:05:03.714Z,7.2
2016-11-19T00:05:13.708Z,7.2
2016-11-19T00:05:23.705Z,7.2
2016-11-19T00:05:33.698Z,7.2
2016-11-19T00:05:43.692Z,7.2
2016-11-19T00:05:53.686Z,7.2
2016-11-19T00:06:03.678Z,7.2
2016-11-19T00:06:13.674Z,7.2
2016-11-19T00:06:23.667Z,7.2
2016-11-19T00:06:33.658Z,7.2
2016-11-19T00:06:43.655Z,7.2
2016-11-19T00:06:53.670Z,7.2
2016-11-19T00:07:03.642Z,7.2
2016-11-19T00:07:13.632Z,7.2
2016-11-19T00:07:23.629Z,7.2
2016-11-19T00:07:33.623Z,7.2
2016-11-19T00:07:43.615Z,7.2
2016-11-19T00:07:53.611Z,7.2
2016-11-19T00:08:03.604Z,7.2
2016-11-19T00:08:13.618Z,7.2
2016-11-19T00:08:23.595Z,7.2
2016-11-19T00:08:33.921Z,7.2
2016-11-19T00:08:43.605Z,7.2
2016-11-19T00:08:53.574Z,7.2
2016-11-19T00:09:03.567Z,7.2
2016-11-19T00:09:13.561Z,7.2
2016-11-19T00:09:23.552Z,7.2
2016-11-19T00:09:33.547Z,7.2
2016-11-19T00:09:43.567Z,7.2
2016-11-19T00:09:53.536Z,7.2
2016-11-19T00:10:03.531Z,7.2
2016-11-19T00:10:13.525Z,7.2
2016-11-19T00:10:23.517Z,7.2
2016-11-19T00:10:33.512Z,7.2
2016-11-19T00:10:43.505Z,7.2
2016-11-19T00:10:53.497Z,7.1
2016-11-19T00:11:03.497Z,7.2
2016-11-19T00:11:13.487Z,7.1
2016-11-19T00:11:23.483Z,7.1
2016-11-19T00:11:33.476Z,7.2
2016-11-19T00:11:43.468Z,7.2
2016-11-19T00:11:53.463Z,7.1
2016-11-19T00:12:03.454Z,7.1
2016-11-19T00:12:13.453Z,7.1
2016-11-19T00:12:23.445Z,7.1
2016-11-19T00:12:33.437Z,7.1
2016-11-19T00:12:43.432Z,7.1
2016-11-19T00:12:53.427Z,7.1
2016-11-19T00:13:03.420Z,7.1
2016-11-19T00:13:13.413Z,7.1
2016-11-19T00:13:23.408Z,7.1
2016-11-19T00:13:33.403Z,7.1
2016-11-19T00:13:43.395Z,7.2
2016-11-19T00:13:53.388Z,7.1
2016-11-19T00:14:03.385Z,7.1
2016-11-19T00:14:13.378Z,7.2
2016-11-19T00:14:23.370Z,7.2
2016-11-19T00:14:33.364Z,7.2
2016-11-19T00:14:43.357Z,7.2
2016-11-19T00:14:53.350Z,7.2
2016-11-19T00:15:03.346Z,7.1
2016-11-19T00:15:13.339Z,7.1
2016-11-19T00:15:23.334Z,7.1
2016-11-19T00:15:33.328Z,7.1
2016-11-19T00:15:43.323Z,7.1
2016-11-19T00:15:53.314Z,7.2
2016-11-19T00:16:03.310Z,7.2
2016-11-19T00:16:13.304Z,7.2
2016-11-19T00:16:23.297Z,7.2
2016-11-19T00:16:33.289Z,7.2
2016-11-19T00:16:43.285Z,7.2
2016-11-19T00:16:53.281Z,7.2
2016-11-19T00:17:03.271Z,7.2
2016-11-19T00:17:13.294Z,7.2
2016-11-19T00:17:23.260Z,7.2
2016-11-19T00:17:33.254Z,7.2
2016-11-19T00:17:43.251Z,7.2
2016-11-19T00:17:53.241Z,7.2
2016-11-19T00:18:03.235Z,7.2
2016-11-19T00:18:13.231Z,7.2
2016-11-19T00:18:23.346Z,7.2
2016-11-19T00:18:33.216Z,7.2
2016-11-19T00:18:43.211Z,7.2
2016-11-19T00:18:53.204Z,7.2
2016-11-19T00:19:03.198Z,7.2
2016-11-19T00:19:13.192Z,7.2
2016-11-19T00:19:23.186Z,7.2
2016-11-19T00:19:33.181Z,7.2
2016-11-19T00:19:43.171Z,7.2
2016-11-19T00:19:53.167Z,7.2
2016-11-19T00:20:03.164Z,7.2
2016-11-19T00:20:13.155Z,7.2
2016-11-19T00:20:23.149Z,7.2
2016-11-19T00:20:33.143Z,7.2
2016-11-19T00:20:43.138Z,7.2
2016-11-19T00:20:53.131Z,7.2
2016-11-19T00:21:03.124Z,7.2
2016-11-19T00:21:13.118Z,7.2
2016-11-19T00:21:23.113Z,7.2
2016-11-19T00:21:33.106Z,7.2
2016-11-19T00:21:43.099Z,7.2
2016-11-19T00:21:53.232Z,7.2
2016-11-19T00:22:03.088Z,7.2
2016-11-19T00:22:13.082Z,7.2
2016-11-19T00:22:23.075Z,7.2
2016-11-19T00:22:33.069Z,7.2
2016-11-19T00:22:43.065Z,7.2
2016-11-19T00:22:53.057Z,7.2
2016-11-19T00:23:03.050Z,7.2
2016-11-19T00:23:13.045Z,7.2
2016-11-19T00:23:23.038Z,7.2
2016-11-19T00:23:33.367Z,7.2
2016-11-19T00:23:43.025Z,7.2
2016-11-19T00:23:53.020Z,7.2
2016-11-19T00:24:03.012Z,7.2
2016-11-19T00:24:13.009Z,7.2
2016-11-19T00:24:23.025Z,7.2
2016-11-19T00:24:32.997Z,7.2
2016-11-19T00:24:42.992Z,7.2
2016-11-19T00:24:52.984Z,7.2
2016-11-19T00:25:02.976Z,7.2
2016-11-19T00:25:12.972Z,7.2
2016-11-19T00:25:22.965Z,7.2
2016-11-19T00:25:32.956Z,7.2
2016-11-19T00:25:42.952Z,7.2
2016-11-19T00:25:52.945Z,7.2
2016-11-19T00:26:02.940Z,7.2
2016-11-19T00:26:12.934Z,7.2
2016-11-19T00:26:22.928Z,7.2
2016-11-19T00:26:32.921Z,7.2
2016-11-19T00:26:42.914Z,7.2
2016-11-19T00:26:52.907Z,7.2
2016-11-19T00:27:02.905Z,7.2
2016-11-19T00:27:12.897Z,7.2
2016-11-19T00:27:22.890Z,7.2
2016-11-19T00:27:32.885Z,7.2
2016-11-19T00:27:43.213Z,7.2
2016-11-19T00:27:52.871Z,7.2
2016-11-19T00:28:02.865Z,7.2
2016-11-19T00:28:12.858Z,7.2
2016-11-19T00:28:22.855Z,7.2
2016-11-19T00:28:32.849Z,7.2
2016-11-19T00:28:42.841Z,7.2
2016-11-19T00:28:52.838Z,7.2
2016-11-19T00:29:02.829Z,7.2
2016-11-19T00:29:12.824Z,7.2
2016-11-19T00:29:22.816Z,7.3
2016-11-19T00:29:32.810Z,7.2
2016-11-19T00:29:43.656Z,7.2
2016-11-19T00:29:52.798Z,7.2
2016-11-19T00:30:02.794Z,7.2
2016-11-19T00:30:12.787Z,7.2
2016-11-19T00:30:22.779Z,7.2
2016-11-19T00:30:32.773Z,7.2
2016-11-19T00:30:42.767Z,7.2
2016-11-19T00:30:52.763Z,7.2
2016-11-19T00:31:02.758Z,7.2
2016-11-19T00:31:12.749Z,7.2
2016-11-19T00:31:22.743Z,7.2
2016-11-19T00:31:32.738Z,7.2
2016-11-19T00:31:42.729Z,7.2
2016-11-19T00:31:52.724Z,7.2
2016-11-19T00:32:02.717Z,7.2
2016-11-19T00:32:12.712Z,7.2
2016-11-19T00:32:22.705Z,7.2
2016-11-19T00:32:32.723Z,7.2
2016-11-19T00:32:42.695Z,7.2
2016-11-19T00:32:52.688Z,7.2
2016-11-19T00:33:02.681Z,7.2
2016-11-19T00:33:12.677Z,7.2
2016-11-19T00:33:22.667Z,7.2
2016-11-19T00:33:32.663Z,7.2
2016-11-19T00:33:42.658Z,7.2
2016-11-19T00:33:52.650Z,7.2
2016-11-19T00:34:02.644Z,7.2
2016-11-19T00:34:12.637Z,7.2
2016-11-19T00:34:22.633Z,7.2
2016-11-19T00:34:32.626Z,7.2
2016-11-19T00:34:42.618Z,7.2
2016-11-19T00:34:52.614Z,7.2
2016-11-19T00:35:02.943Z,7.2
2016-11-19T00:35:12.600Z,7.2
2016-11-19T00:35:22.623Z,7.2
2016-11-19T00:35:32.589Z,7.2
2016-11-19T00:35:42.582Z,7.2
2016-11-19T00:35:52.576Z,7.2
2016-11-19T00:36:02.570Z,7.2
2016-11-19T00:36:12.563Z,7.2
2016-11-19T00:36:22.554Z,7.2
2016-11-19T00:36:32.552Z,7.2
2016-11-19T00:36:42.550Z,7.1
2016-11-19T00:36:52.541Z,7.2
2016-11-19T00:37:02.531Z,7.2
2016-11-19T00:37:12.527Z,7.2
2016-11-19T00:37:22.519Z,7.2
2016-11-19T00:37:32.515Z,7.2
2016-11-19T00:37:42.509Z,7.2
2016-11-19T00:37:52.503Z,7.2
2016-11-19T00:38:02.496Z,7.2
2016-11-19T00:38:12.490Z,7.1
2016-11-19T00:38:22.484Z,7.2
2016-11-19T00:38:32.479Z,7.1
2016-11-19T00:38:42.472Z,7.1
2016-11-19T00:38:52.466Z,7.1
2016-11-19T00:39:02.460Z,7.1
2016-11-19T00:39:12.455Z,7.1
2016-11-19T00:39:22.446Z,7.1
2016-11-19T00:39:32.443Z,7.1
2016-11-19T00:39:42.435Z,7.1
2016-11-19T00:39:52.427Z,7.1
2016-11-19T00:40:02.421Z,7.1
2016-11-19T00:40:12.416Z,7.1
2016-11-19T00:40:22.411Z,7.1
2016-11-19T00:40:32.406Z,7.1
2016-11-19T00:40:42.397Z,7.1
2016-11-19T00:40:52.394Z,7.1
2016-11-19T00:41:02.384Z,7.1
2016-11-19T00:41:12.388Z,7.1
2016-11-19T00:41:22.374Z,7.1
2016-11-19T00:41:32.368Z,7.1
2016-11-19T00:41:42.362Z,7.1
2016-11-19T00:41:52.354Z,7.1
2016-11-19T00:42:02.349Z,7.1
2016-11-19T00:42:12.343Z,7.1
2016-11-19T00:42:22.672Z,7.1
2016-11-19T00:42:32.350Z,7.1
2016-11-19T00:42:42.324Z,7.1
2016-11-19T00:42:52.320Z,7.1
2016-11-19T00:43:02.651Z,7.1
2016-11-19T00:43:12.305Z,7.1
2016-11-19T00:43:22.299Z,7.1
2016-11-19T00:43:32.292Z,7.1
2016-11-19T00:43:42.287Z,7.1
2016-11-19T00:43:52.280Z,7.1
2016-11-19T00:44:02.275Z,7.1
2016-11-19T00:44:12.272Z,7
2016-11-19T00:44:22.281Z,7
2016-11-19T00:44:32.254Z,7
2016-11-19T00:44:42.248Z,7
2016-11-19T00:44:52.242Z,7
2016-11-19T00:45:02.271Z,7
2016-11-19T00:45:12.233Z,7
2016-11-19T00:45:22.225Z,7
2016-11-19T00:45:32.219Z,7
2016-11-19T00:45:42.567Z,7
2016-11-19T00:45:52.207Z,7
2016-11-19T00:46:02.203Z,7
2016-11-19T00:46:12.200Z,7
2016-11-19T00:46:22.188Z,7
2016-11-19T00:46:32.181Z,7
2016-11-19T00:46:42.175Z,7
2016-11-19T00:46:52.170Z,7
2016-11-19T00:47:02.164Z,7
2016-11-19T00:47:12.156Z,7.1
2016-11-19T00:47:22.151Z,7
2016-11-19T00:47:32.144Z,7
2016-11-19T00:47:42.139Z,7.1
2016-11-19T00:47:52.250Z,7
2016-11-19T00:48:02.127Z,7
2016-11-19T00:48:12.120Z,7
2016-11-19T00:48:22.115Z,7
2016-11-19T00:48:32.106Z,7
2016-11-19T00:48:42.102Z,7
2016-11-19T00:48:52.095Z,7
2016-11-19T00:49:02.090Z,7
2016-11-19T00:49:12.098Z,7
2016-11-19T00:49:22.079Z,7
2016-11-19T00:49:32.072Z,7
2016-11-19T00:49:42.066Z,7
2016-11-19T00:49:52.058Z,7
2016-11-19T00:50:02.052Z,7
2016-11-19T00:50:12.047Z,7
2016-11-19T00:50:22.039Z,7
2016-11-19T00:50:32.035Z,7
2016-11-19T00:50:42.026Z,7
2016-11-19T00:50:52.146Z,7
2016-11-19T00:51:02.012Z,7
2016-11-19T00:51:12.005Z,6.9
2016-11-19T00:51:22.002Z,6.9
2016-11-19T00:51:31.996Z,6.9
2016-11-19T00:51:41.992Z,6.9
2016-11-19T00:51:51.981Z,6.9
2016-11-19T00:52:01.977Z,6.9
2016-11-19T00:52:11.970Z,6.9
2016-11-19T00:52:21.965Z,6.9
2016-11-19T00:52:31.962Z,6.9
2016-11-19T00:52:42.012Z,6.9
2016-11-19T00:52:51.947Z,6.9
2016-11-19T00:53:01.940Z,6.9
2016-11-19T00:53:11.935Z,6.9
2016-11-19T00:53:21.928Z,6.9
2016-11-19T00:53:31.920Z,6.9
2016-11-19T00:53:41.919Z,6.9
2016-11-19T00:53:51.910Z,6.9
2016-11-19T00:54:01.903Z,6.9
2016-11-19T00:54:11.897Z,6.9
2016-11-19T00:54:21.888Z,6.9
2016-11-19T00:54:31.887Z,6.9
2016-11-19T00:54:41.879Z,6.9
2016-11-19T00:54:51.873Z,6.9
2016-11-19T00:55:01.866Z,6.9
2016-11-19T00:55:11.860Z,6.9
2016-11-19T00:55:21.852Z,6.9
2016-11-19T00:55:31.849Z,6.9
2016-11-19T00:55:41.842Z,6.9
2016-11-19T00:55:51.835Z,6.9
2016-11-19T00:56:01.829Z,6.9
2016-11-19T00:56:11.822Z,6.9
2016-11-19T00:56:21.817Z,6.9
2016-11-19T00:56:31.811Z,6.9
2016-11-19T00:56:41.830Z,6.9
2016-11-19T00:56:51.798Z,6.9
2016-11-19T00:57:01.795Z,6.9
2016-11-19T00:57:11.787Z,6.9
2016-11-19T00:57:21.779Z,6.9
2016-11-19T00:57:31.774Z,6.9
2016-11-19T00:57:41.769Z,6.9
2016-11-19T00:57:51.760Z,6.9
2016-11-19T00:58:01.757Z,6.9
2016-11-19T00:58:11.751Z,6.9
2016-11-19T00:58:21.743Z,6.9
2016-11-19T00:58:31.762Z,6.9
2016-11-19T00:58:41.729Z,6.9
2016-11-19T00:58:51.726Z,6.9
2016-11-19T00:59:01.719Z,6.9
2016-11-19T00:59:11.715Z,6.9
2016-11-19T00:59:21.708Z,6.9
2016-11-19T00:59:31.700Z,6.9
2016-11-19T00:59:41.694Z,6.9
2016-11-19T00:59:51.686Z,6.9
2016-11-19T01:00:01.680Z,6.9
2016-11-19T01:00:11.675Z,6.9
2016-11-19T01:00:21.669Z,6.9
2016-11-19T01:00:31.664Z,6.9
2016-11-19T01:00:41.657Z,6.9
2016-11-19T01:00:51.651Z,6.9
2016-11-19T01:01:01.645Z,6.9
2016-11-19T01:01:11.637Z,6.9
2016-11-19T01:01:21.632Z,6.9
2016-11-19T01:01:31.625Z,6.9
2016-11-19T01:01:41.620Z,6.9
2016-11-19T01:01:51.614Z,6.9
2016-11-19T01:02:01.607Z,6.9
2016-11-19T01:02:11.604Z,6.9
2016-11-19T01:02:21.597Z,6.9
2016-11-19T01:02:31.611Z,6.9
2016-11-19T01:02:41.583Z,6.9
2016-11-19T01:02:51.574Z,6.9
2016-11-19T01:03:01.571Z,6.8
2016-11-19T01:03:11.564Z,6.9
2016-11-19T01:03:21.558Z,6.9
2016-11-19T01:03:31.552Z,6.9
2016-11-19T01:03:41.566Z,6.9
2016-11-19T01:03:51.539Z,6.9
2016-11-19T01:04:01.533Z,6.9
2016-11-19T01:04:11.526Z,6.9
2016-11-19T01:04:21.521Z,6.8
2016-11-19T01:04:31.513Z,6.9
2016-11-19T01:04:41.510Z,6.9
2016-11-19T01:04:51.503Z,6.8
2016-11-19T01:05:01.501Z,6.8
2016-11-19T01:05:11.489Z,6.8
2016-11-19T01:05:21.482Z,6.8
2016-11-19T01:05:31.477Z,6.8
2016-11-19T01:05:41.473Z,6.8
2016-11-19T01:05:51.464Z,6.8
2016-11-19T01:06:01.459Z,6.8
2016-11-19T01:06:11.452Z,6.8
2016-11-19T01:06:21.442Z,6.8
2016-11-19T01:06:31.440Z,6.8
2016-11-19T01:06:41.436Z,6.8
2016-11-19T01:06:51.430Z,6.8
2016-11-19T01:07:01.420Z,6.8
2016-11-19T01:07:11.415Z,6.8
2016-11-19T01:07:21.409Z,6.8
2016-11-19T01:07:31.425Z,6.8
2016-11-19T01:07:41.395Z,6.8
2016-11-19T01:07:51.391Z,6.8
2016-11-19T01:08:01.384Z,6.9
2016-11-19T01:08:11.379Z,6.9
2016-11-19T01:08:21.371Z,6.9
2016-11-19T01:08:31.367Z,6.8
2016-11-19T01:08:41.361Z,6.9
2016-11-19T01:08:51.352Z,6.8
2016-11-19T01:09:01.348Z,6.8
2016-11-19T01:09:11.340Z,6.8
2016-11-19T01:09:21.335Z,6.8
2016-11-19T01:09:31.328Z,6.8
2016-11-19T01:09:41.323Z,6.8
2016-11-19T01:09:51.316Z,6.8
2016-11-19T01:10:01.310Z,6.8
2016-11-19T01:10:11.304Z,6.8
2016-11-19T01:10:21.300Z,6.8
2016-11-19T01:10:31.291Z,6.8
2016-11-19T01:10:41.287Z,6.8
2016-11-19T01:10:51.279Z,6.8
2016-11-19T01:11:01.275Z,6.8
2016-11-19T01:11:11.266Z,6.8
2016-11-19T01:11:21.260Z,6.8
2016-11-19T01:11:31.255Z,6.8
2016-11-19T01:11:41.247Z,6.8
2016-11-19T01:11:51.242Z,6.8
2016-11-19T01:12:01.236Z,6.8
2016-11-19T01:12:11.229Z,6.8
2016-11-19T01:12:21.224Z,6.8
2016-11-19T01:12:31.217Z,6.8
2016-11-19T01:12:41.211Z,6.8
2016-11-19T01:12:51.204Z,6.8
2016-11-19T01:13:01.198Z,6.8
2016-11-19T01:13:11.191Z,6.8
2016-11-19T01:13:21.187Z,6.8
2016-11-19T01:13:31.180Z,6.8
2016-11-19T01:13:41.198Z,6.8
2016-11-19T01:13:51.167Z,6.8
2016-11-19T01:14:01.164Z,6.8
2016-11-19T01:14:11.156Z,6.8
2016-11-19T01:14:21.149Z,6.8
2016-11-19T01:14:31.143Z,6.8
2016-11-19T01:14:41.138Z,6.8
2016-11-19T01:14:51.131Z,6.8
2016-11-19T01:15:01.128Z,6.8
2016-11-19T01:15:11.127Z,6.8
2016-11-19T01:15:21.113Z,6.8
2016-11-19T01:15:31.108Z,6.8
2016-11-19T01:15:41.098Z,6.8
2016-11-19T01:15:51.094Z,6.8
2016-11-19T01:16:01.086Z,6.8
2016-11-19T01:16:11.082Z,6.8
2016-11-19T01:16:21.075Z,6.8
2016-11-19T01:16:31.068Z,6.8
2016-11-19T01:16:41.061Z,6.8
2016-11-19T01:16:51.055Z,6.8
2016-11-19T01:17:01.050Z,6.7
2016-11-19T01:17:11.044Z,6.7
2016-11-19T01:17:21.038Z,6.7
2016-11-19T01:17:31.032Z,6.8
2016-11-19T01:17:41.024Z,6.7
2016-11-19T01:17:51.017Z,6.8
2016-11-19T01:18:01.011Z,6.8
2016-11-19T01:18:11.006Z,6.8
2016-11-19T01:18:21.000Z,6.8
2016-11-19T01:18:30.994Z,6.8
2016-11-19T01:18:40.988Z,6.8
2016-11-19T01:18:50.980Z,6.8
2016-11-19T01:19:00.975Z,6.8
2016-11-19T01:19:10.967Z,6.8
2016-11-19T01:19:20.962Z,6.8
2016-11-19T01:19:30.957Z,6.8
2016-11-19T01:19:40.951Z,6.8
2016-11-19T01:19:50.948Z,6.8
2016-11-19T01:20:00.936Z,6.8
2016-11-19T01:20:10.930Z,6.8
2016-11-19T01:20:20.927Z,6.8
2016-11-19T01:20:30.921Z,6.8
2016-11-19T01:20:40.914Z,6.8
2016-11-19T01:20:50.910Z,6.8
2016-11-19T01:21:00.900Z,6.8
2016-11-19T01:21:10.897Z,6.8
2016-11-19T01:21:20.888Z,6.8
2016-11-19T01:21:30.882Z,6.8
2016-11-19T01:21:40.876Z,6.8
2016-11-19T01:21:50.868Z,6.8
2016-11-19T01:22:00.861Z,6.8
2016-11-19T01:22:10.857Z,6.8
2016-11-19T01:22:20.848Z,6.8
2016-11-19T01:22:30.844Z,6.8
2016-11-19T01:22:40.837Z,6.8
2016-11-19T01:22:50.832Z,6.8
2016-11-19T01:23:00.826Z,6.8
2016-11-19T01:23:10.819Z,6.8
2016-11-19T01:23:21.170Z,6.8
2016-11-19T01:23:30.808Z,6.8
2016-11-19T01:23:40.801Z,6.8
2016-11-19T01:23:50.794Z,6.8
2016-11-19T01:24:00.788Z,6.8
2016-11-19T01:24:10.780Z,6.8
2016-11-19T01:24:20.777Z,6.8
2016-11-19T01:24:30.769Z,6.8
2016-11-19T01:24:40.764Z,6.8
2016-11-19T01:24:50.759Z,6.8
2016-11-19T01:25:00.752Z,6.8
2016-11-19T01:25:10.747Z,6.7
2016-11-19T01:25:20.738Z,6.8
2016-11-19T01:25:30.734Z,6.8
2016-11-19T01:25:40.727Z,6.8
2016-11-19T01:25:50.720Z,6.8
2016-11-19T01:26:00.713Z,6.7
2016-11-19T01:26:10.708Z,6.7
2016-11-19T01:26:20.728Z,6.7
2016-11-19T01:26:30.697Z,6.7
2016-11-19T01:26:40.689Z,6.7
2016-11-19T01:26:50.682Z,6.7
2016-11-19T01:27:00.676Z,6.7
2016-11-19T01:27:10.672Z,6.7
2016-11-19T01:27:20.666Z,6.7
2016-11-19T01:27:30.659Z,6.7
2016-11-19T01:27:40.652Z,6.7
2016-11-19T01:27:50.649Z,6.7
2016-11-19T01:28:00.641Z,6.7
2016-11-19T01:28:10.634Z,6.7
2016-11-19T01:28:20.628Z,6.7
2016-11-19T01:28:30.624Z,6.7
2016-11-19T01:28:40.620Z,6.7
2016-11-19T01:28:50.611Z,6.7
2016-11-19T01:29:00.603Z,6.7
2016-11-19T01:29:10.717Z,6.7
2016-11-19T01:29:20.591Z,6.7
2016-11-19T01:29:30.584Z,6.7
2016-11-19T01:29:40.578Z,6.7
2016-11-19T01:29:50.572Z,6.7
2016-11-19T01:30:00.566Z,6.7
2016-11-19T01:30:10.561Z,6.7
2016-11-19T01:30:20.549Z,6.7
2016-11-19T01:30:30.548Z,6.7
2016-11-19T01:30:40.541Z,6.7
2016-11-19T01:30:50.533Z,6.7
2016-11-19T01:31:00.528Z,6.7
2016-11-19T01:31:10.523Z,6.7
2016-11-19T01:31:20.516Z,6.7
2016-11-19T01:31:30.510Z,6.7
2016-11-19T01:31:40.503Z,6.7
2016-11-19T01:31:50.497Z,6.7
2016-11-19T01:32:00.490Z,6.7
2016-11-19T01:32:10.486Z,6.7
2016-11-19T01:32:20.479Z,6.7
2016-11-19T01:32:30.473Z,6.7
2016-11-19T01:32:40.491Z,6.7
2016-11-19T01:32:50.458Z,6.7
2016-11-19T01:33:00.453Z,6.7
2016-11-19T01:33:10.445Z,6.7
2016-11-19T01:33:20.440Z,6.7
2016-11-19T01:33:30.437Z,6.7
2016-11-19T01:33:40.430Z,6.7
2016-11-19T01:33:50.421Z,6.7
2016-11-19T01:34:00.441Z,6.7
2016-11-19T01:34:10.411Z,6.7
2016-11-19T01:34:20.402Z,6.7
2016-11-19T01:34:30.397Z,6.7
2016-11-19T01:34:40.392Z,6.7
2016-11-19T01:34:50.384Z,6.7
2016-11-19T01:35:00.380Z,6.7
2016-11-19T01:35:10.707Z,6.7
2016-11-19T01:35:20.390Z,6.7
2016-11-19T01:35:30.360Z,6.7
2016-11-19T01:35:40.351Z,6.7
2016-11-19T01:35:50.348Z,6.8
2016-11-19T01:36:00.341Z,6.8
2016-11-19T01:36:10.338Z,6.8
2016-11-19T01:36:20.331Z,6.8
2016-11-19T01:36:30.323Z,6.8
2016-11-19T01:36:40.316Z,6.8
2016-11-19T01:36:50.311Z,6.8
2016-11-19T01:37:00.305Z,6.8
2016-11-19T01:37:10.299Z,6.7
2016-11-19T01:37:20.410Z,6.7
2016-11-19T01:37:30.284Z,6.7
2016-11-19T01:37:40.280Z,6.7
2016-11-19T01:37:50.272Z,6.7
2016-11-19T01:38:00.266Z,6.7
2016-11-19T01:38:10.261Z,6.7
2016-11-19T01:38:20.256Z,6.7
2016-11-19T01:38:30.249Z,6.7
2016-11-19T01:38:40.243Z,6.7
2016-11-19T01:38:50.236Z,6.6
2016-11-19T01:39:00.228Z,6.6
2016-11-19T01:39:10.227Z,6.6
2016-11-19T01:39:20.246Z,6.7
2016-11-19T01:39:30.212Z,6.7
2016-11-19T01:39:40.204Z,6.6
2016-11-19T01:39:50.198Z,6.6
2016-11-19T01:40:00.220Z,6.6
2016-11-19T01:40:10.189Z,6.6
2016-11-19T01:40:20.517Z,6.6
2016-11-19T01:40:30.176Z,6.6
2016-11-19T01:40:40.170Z,6.6
2016-11-19T01:40:50.163Z,6.6
2016-11-19T01:41:00.155Z,6.6
2016-11-19T01:41:10.150Z,6.6
2016-11-19T01:41:20.142Z,6.6
2016-11-19T01:41:30.139Z,6.6
2016-11-19T01:41:40.132Z,6.6
2016-11-19T01:41:50.126Z,6.6
2016-11-19T01:42:00.118Z,6.6
2016-11-19T01:42:10.113Z,6.6
2016-11-19T01:42:20.106Z,6.6
2016-11-19T01:42:30.102Z,6.6
2016-11-19T01:42:40.094Z,6.6
2016-11-19T01:42:50.088Z,6.7
2016-11-19T01:43:00.082Z,6.7
2016-11-19T01:43:10.077Z,6.7
2016-11-19T01:43:20.068Z,6.7
2016-11-19T01:43:30.063Z,6.7
2016-11-19T01:43:40.059Z,6.7
2016-11-19T01:43:50.050Z,6.7
2016-11-19T01:44:00.043Z,6.7
2016-11-19T01:44:10.036Z,6.7
2016-11-19T01:44:20.032Z,6.7
2016-11-19T01:44:30.027Z,6.7
2016-11-19T01:44:40.018Z,6.7
2016-11-19T01:44:50.014Z,6.7
2016-11-19T01:45:00.007Z,6.7
2016-11-19T01:45:10.000Z,6.7
2016-11-19T01:45:19.994Z,6.7
2016-11-19T01:45:29.988Z,6.7
2016-11-19T01:45:40.098Z,6.7
2016-11-19T01:45:50.312Z,6.7
2016-11-19T01:45:59.970Z,6.7
2016-11-19T01:46:09.964Z,6.7
2016-11-19T01:46:19.958Z,6.7
2016-11-19T01:46:29.951Z,6.7
2016-11-19T01:46:39.944Z,6.7
2016-11-19T01:46:49.937Z,6.7
2016-11-19T01:46:59.931Z,6.6
2016-11-19T01:47:09.926Z,6.6
2016-11-19T01:47:19.919Z,6.6
2016-11-19T01:47:29.915Z,6.6
2016-11-19T01:47:39.907Z,6.6
2016-11-19T01:47:49.900Z,6.6
2016-11-19T01:47:59.895Z,6.6
2016-11-19T01:48:09.889Z,6.6
2016-11-19T01:48:19.881Z,6.6
2016-11-19T01:48:29.991Z,6.6
2016-11-19T01:48:39.870Z,6.6
2016-11-19T01:48:49.865Z,6.7
2016-11-19T01:48:59.857Z,6.7
2016-11-19T01:49:09.850Z,6.7
2016-11-19T01:49:19.845Z,6.7
2016-11-19T01:49:29.840Z,6.7
2016-11-19T01:49:39.834Z,6.7
2016-11-19T01:49:49.826Z,6.7
2016-11-19T01:49:59.819Z,6.6
2016-11-19T01:50:09.815Z,6.6
2016-11-19T01:50:19.806Z,6.6
2016-11-19T01:50:29.800Z,6.6
2016-11-19T01:50:39.794Z,6.6
2016-11-19T01:50:49.789Z,6.6
2016-11-19T01:50:59.783Z,6.6
2016-11-19T01:51:09.775Z,6.6
2016-11-19T01:51:19.798Z,6.6
2016-11-19T01:51:29.769Z,6.6
2016-11-19T01:51:39.756Z,6.6
2016-11-19T01:51:49.750Z,6.6
2016-11-19T01:51:59.745Z,6.6
2016-11-19T01:52:09.740Z,6.6
2016-11-19T01:52:19.734Z,6.6
2016-11-19T01:52:29.727Z,6.5
2016-11-19T01:52:39.719Z,6.5
2016-11-19T01:52:49.715Z,6.5
2016-11-19T01:52:59.708Z,6.5
2016-11-19T01:53:09.700Z,6.5
2016-11-19T01:53:19.697Z,6.5
2016-11-19T01:53:29.688Z,6.5
2016-11-19T01:53:39.683Z,6.5
2016-11-19T01:53:49.677Z,6.5
2016-11-19T01:53:59.670Z,6.5
2016-11-19T01:54:09.665Z,6.6
2016-11-19T01:54:19.655Z,6.6
2016-11-19T01:54:29.653Z,6.5
2016-11-19T01:54:39.651Z,6.6
2016-11-19T01:54:49.640Z,6.5
2016-11-19T01:54:59.633Z,6.5
2016-11-19T01:55:09.627Z,6.5
2016-11-19T01:55:19.620Z,6.5
2016-11-19T01:55:29.615Z,6.5
2016-11-19T01:55:39.607Z,6.5
2016-11-19T01:55:49.601Z,6.5
2016-11-19T01:55:59.594Z,6.5
2016-11-19T01:56:09.589Z,6.6
2016-11-19T01:56:19.585Z,6.6
2016-11-19T01:56:29.578Z,6.5
2016-11-19T01:56:39.569Z,6.5
2016-11-19T01:56:49.565Z,6.5
2016-11-19T01:56:59.557Z,6.5
2016-11-19T01:57:09.551Z,6.5
2016-11-19T01:57:19.546Z,6.6
2016-11-19T01:57:29.541Z,6.5
2016-11-19T01:57:39.534Z,6.5
2016-11-19T01:57:49.528Z,6.5
2016-11-19T01:57:59.520Z,6.5
2016-11-19T01:58:09.515Z,6.5
2016-11-19T01:58:19.508Z,6.5
2016-11-19T01:58:29.502Z,6.5
2016-11-19T01:58:39.496Z,6.5
2016-11-19T01:58:49.491Z,6.5
2016-11-19T01:58:59.485Z,6.4
2016-11-19T01:59:09.812Z,6.5
2016-11-19T01:59:19.469Z,6.5
2016-11-19T01:59:29.467Z,6.5
2016-11-19T01:59:39.458Z,6.5
2016-11-19T01:59:49.453Z,6.5
2016-11-19T01:59:59.446Z,6.5
2016-11-19T02:00:09.439Z,6.4
2016-11-19T02:00:19.435Z,6.4
2016-11-19T02:00:29.428Z,6.4
2016-11-19T02:00:39.420Z,6.5
2016-11-19T02:00:49.414Z,6.5
2016-11-19T02:00:59.409Z,6.5
2016-11-19T02:01:09.404Z,6.5
2016-11-19T02:01:19.398Z,6.5
2016-11-19T02:01:29.393Z,6.5
2016-11-19T02:01:39.382Z,6.5
2016-11-19T02:01:49.379Z,6.5
2016-11-19T02:01:59.372Z,6.4
2016-11-19T02:02:09.364Z,6.5
2016-11-19T02:02:19.359Z,6.5
2016-11-19T02:02:29.356Z,6.5
2016-11-19T02:02:39.345Z,6.5
2016-11-19T02:02:49.343Z,6.5
2016-11-19T02:02:59.336Z,6.5
2016-11-19T02:03:09.327Z,6.5
2016-11-19T02:03:19.346Z,6.5
2016-11-19T02:03:29.314Z,6.5
2016-11-19T02:03:39.308Z,6.5
2016-11-19T02:03:49.303Z,6.5
2016-11-19T02:03:59.296Z,6.5
2016-11-19T02:04:09.290Z,6.5
2016-11-19T02:04:19.283Z,6.5
2016-11-19T02:04:29.277Z,6.5
2016-11-19T02:04:39.271Z,6.5
2016-11-19T02:04:49.385Z,6.5
2016-11-19T02:04:59.287Z,6.5
2016-11-19T02:05:09.587Z,6.5
2016-11-19T02:05:19.246Z,6.5
2016-11-19T02:05:29.241Z,6.4
2016-11-19T02:05:39.253Z,6.4
2016-11-19T02:05:49.225Z,6.5
2016-11-19T02:05:59.221Z,6.5
2016-11-19T02:06:09.215Z,6.5
2016-11-19T02:06:19.209Z,6.5
2016-11-19T02:06:29.224Z,6.5
2016-11-19T02:06:39.196Z,6.5
2016-11-19T02:06:49.188Z,6.5
2016-11-19T02:06:59.183Z,6.5
2016-11-19T02:07:09.176Z,6.5
2016-11-19T02:07:19.172Z,6.5
2016-11-19T02:07:29.164Z,6.5
2016-11-19T02:07:39.157Z,6.5
2016-11-19T02:07:49.153Z,6.5
2016-11-19T02:07:59.148Z,6.5
2016-11-19T02:08:09.140Z,6.5
2016-11-19T02:08:19.134Z,6.5
2016-11-19T02:08:29.243Z,6.5
2016-11-19T02:08:39.120Z,6.5
2016-11-19T02:08:49.112Z,6.5
2016-11-19T02:08:59.108Z,6.5
2016-11-19T02:09:09.101Z,6.5
2016-11-19T02:09:19.095Z,6.5
2016-11-19T02:09:29.089Z,6.5
2016-11-19T02:09:39.083Z,6.5
2016-11-19T02:09:49.098Z,6.5
2016-11-19T02:09:59.071Z,6.4
2016-11-19T02:10:09.064Z,6.4
2016-11-19T02:10:19.058Z,6.4
2016-11-19T02:10:29.049Z,6.4
2016-11-19T02:10:39.046Z,6.4
2016-11-19T02:10:49.037Z,6.5
2016-11-19T02:10:59.031Z,6.4
2016-11-19T02:11:09.026Z,6.4
2016-11-19T02:11:19.021Z,6.5
2016-11-19T02:11:29.015Z,6.5
2016-11-19T02:11:39.008Z,6.5
2016-11-19T02:11:48.999Z,6.5
2016-11-19T02:11:58.995Z,6.5
2016-11-19T02:12:08.989Z,6.5
2016-11-19T02:12:18.983Z,6.5
2016-11-19T02:12:28.976Z,6.5
2016-11-19T02:12:38.970Z,6.5
2016-11-19T02:12:48.967Z,6.5
2016-11-19T02:12:58.957Z,6.4
2016-11-19T02:13:08.951Z,6.4
2016-11-19T02:13:18.944Z,6.4
2016-11-19T02:13:29.295Z,6.4
2016-11-19T02:13:38.934Z,6.4
2016-11-19T02:13:48.928Z,6.4
2016-11-19T02:13:58.918Z,6.4
2016-11-19T02:14:08.914Z,6.4
2016-11-19T02:14:18.909Z,6.4
2016-11-19T02:14:28.900Z,6.4
2016-11-19T02:14:38.896Z,6.5
2016-11-19T02:14:48.892Z,6.5
2016-11-19T02:14:58.884Z,6.5
2016-11-19T02:15:08.876Z,6.5
2016-11-19T02:15:18.870Z,6.5
2016-11-19T02:15:28.863Z,6.5
2016-11-19T02:15:38.858Z,6.5
2016-11-19T02:15:48.849Z,6.5
2016-11-19T02:15:58.845Z,6.5
2016-11-19T02:16:08.869Z,6.5
2016-11-19T02:16:18.831Z,6.5
2016-11-19T02:16:28.828Z,6.5
2016-11-19T02:16:38.820Z,6.5
2016-11-19T02:16:48.813Z,6.5
2016-11-19T02:16:58.808Z,6.5
2016-11-19T02:17:08.803Z,6.5
2016-11-19T02:17:18.795Z,6.5
2016-11-19T02:17:28.819Z,6.5
2016-11-19T02:17:38.784Z,6.5
2016-11-19T02:17:49.112Z,6.5
2016-11-19T02:17:58.771Z,6.5